AirNav   Everest Fuels
 
 779 users online  

MI66 Michigan International Speedway Heliport
Brooklyn, Michigan, USA

GOING TO BROOKLYN?


FAA INFORMATION EFFECTIVE 18 JUNE 2020

Location

FAA Identifier: MI66
Lat/Long: 42-03-32.0000N 084-14-21.6000W
42-03.533333N 084-14.360000W
42.0588889,-84.2393333
(estimated)
Elevation: 1000 ft. / 305 m (estimated)
From city: 2 miles S of BROOKLYN, MI
Time zone: UTC -4 (UTC -5 during Standard Time)
Zip code: 49230

Heliport Operations

Heliport use: Private use. Permission required prior to landing
Activation date: 05/2006
Control tower: no
ARTCC: CLEVELAND CENTER
FSS: LANSING FLIGHT SERVICE STATION
Attendance: INTMT
ATTENDED RACE EVENT WEEKENDS ONLY.
Wind indicator: lighted
Segmented circle: no

Heliport Communications

WX ASOS at ADG (14 nm SE): 118.375 (517-265-9089)
WX ASOS at JXN (16 nm NW): 122.725 (517-768-7506)
WX AWOS-3 at JYM (18 nm SW): 121.025 (517-437-5638)

Nearby radio navigation aids

VOR radial/distance  VOR name  Freq  Var
LFDr096/23.4LITCHFIELD VOR/DME111.2005W
CRLr274/34.8CARLETON VOR/DME115.7003W
SVMr237/35.5SALEM VORTAC114.3003W
DXOr263/39.9DETROIT VOR/DME113.4006W

 
NDB name  Hdg/Dist  Freq  Var  ID
ADRIAN334/13.427806WADG .- -.. --.
TECUMSEH281/15.823906WTCU - -.-. ..-

Heliport Services

Runway Information

Helipad H1

Dimensions: 35 x 35 ft. / 11 x 11 m
Surface: turf
Runway edge lights: PERI
H1, H2 & H3 LGTS ON PRIOR REQ, CALL 517-592-6666.
Operational restrictions: CIRCULAR HELIPAD.
Traffic pattern: leftleft

Helipad H2

Dimensions: 35 x 35 ft. / 11 x 11 m
Surface: turf
Runway edge lights: PERI
Operational restrictions: CIRCULAR HELIPAD.
Traffic pattern: leftleft

Helipad H3

Dimensions: 35 x 35 ft. / 11 x 11 m
Surface: turf
Runway edge lights: PERI
Operational restrictions: CIRCULAR HELIPAD.
Traffic pattern: leftleft

Heliport Ownership and Management from official FAA records

Ownership: Privately-owned
Owner: INTERNATIONAL SPEEDWAY CORP
12626 US HIGHWAY 12
BROOKLYN, MI 49230-9068
Phone 517-592-6666
Manager: TONY NAGORSEN
12626 US HIGHWAY 12
BROOKLYN, MI 49230-9068
Phone 517-592-6666
ADNL CTC: TIM LAMB 517-592-1411 TLAMB@MISPEEDWAY.COM.

Additional Remarks

AUTHORIZED HELICOPTER OPS ONLY.
TMPRY FLT RESTRICTION IN EFFECT 1 HR BEFORE TO 1 HR AFTER SCHEDULED RACE. WAIVER REQUIRED.
INTENSIVE HELICOPTER ACTIVITY RACE WKENDS.
FREQ 123.025 MONITORED RACE EVENTS WEEKENDS ONLY.
FOR CD CTC GREAT LAKES APCH AT 269-459-3345, WHEN APCH CLSD CTC CLEVELAND ARTCC AT 440-774-0229/0490.

Instrument Procedures

There are no published instrument procedures at MI66.

Some nearby airports with instrument procedures:

KADG - Lenawee County Airport (14 nm SE)
KJXN - Jackson County Airport-Reynolds Field (16 nm NW)
KJYM - Hillsdale Municipal Airport (18 nm SW)
KARB - Ann Arbor Municipal Airport (24 nm NE)
KUSE - Fulton County Airport (27 nm S)
 
Loc | Ops | Rwys | IFR | FBO | Links
Com | Nav | Svcs | Stats | Notes
Area around MI66 (Michigan International Speedway Heliport)
 
Road maps at: MapQuest Bing Google
 
Aerial photo
No photo
 
Sectional chart

 
Airport distance calculator
Flying to Michigan International Speedway Heliport? Find the distance to fly.

From to MI66

Sunrise and sunset
Times for 14-Jul-2020
 Local
(UTC-4)
 Zulu
(UTC)
Morning civil twilight05:4209:42
Sunrise06:1510:15
Sunset21:1001:10
Evening civil twilight21:4401:44

Current date and time
Zulu (UTC)  15-Jul-2020 03:34:27
Local (UTC-4)  14-Jul-2020 23:34:27
 
METAR
KADG 
13nm SE 
150253Z AUTO 14005KT 10SM CLR 22/18 A3009 RMK AO2 SLP185 T02220178 51007 TSNO
KJXN 
16nm NW 
150256Z AUTO 11006KT 10SM CLR 22/15 A3007 RMK AO2 SLP175 T02170150 53001
KJYM 
18nm SW 
150315Z AUTO 13004KT 10SM SCT120 22/15 A3007 RMK AO2 T02150152
KARB 
24nm NE 
734-668-7173
150253Z AUTO 15004KT 10SM CLR 22/17 A3007 RMK AO2 SLP178 T02170167 50004
TAF
KJXN 
16nm NW 
141735Z 1418/1518 20008KT P6SM SCT050 FM150000 16005KT P6SM FEW050 FM151200 20007KT P6SM FEW060
NOTAMs
Click for the latest NOTAMs
NOTAMs are issued by the DoD/FAA and will open in a separate window not controlled by AirNav.

 

 
 

Would you like to see your business listed on this page?

 If your business provides an interesting product or service to pilots, flight crews, aircraft, or users of the Michigan International Speedway Heliport, you should consider listing it here.  To start the listing process, click on the button below
 
Add a business
 

Other Pages about Michigan International Speedway Heliport

Update a link
 
Copyright © AirNav, LLC. All rights reserved. Privacy Policy  Contact